Jackie Cenac — WDG9141 — position and weather

sailwx.info

Track history (hours):
 
Tides and Currents Weather Stations Pressure Air Temp Water Temp Dewpoint Dewpoint Depression Visibility Wind Speed Wind Dir Waves Ship Positions

Jackie Cenac

Owner: Cenac Marine Services, Houma, LA. More information available from US FCC via Universal Licensing System and Coast Guard Vessel Documentation Center.

Last reported at 2018-Jun-18 18:01 UTC. Time now 2018-Jun-25 17:41 UTC.
Position N 29°33' W 090°25'.

Length 22 m; draft 3.2 m.

Type: Tug. MMSI: 367584740.

Date/timePositionNaut miles runAvg speedWind from/ knotsBaromVisibWave heightAir tempDewpointWater temp
2018-Jun-18 18:01N 29°33' W 090°25'0 0.1
2018-Jun-18 17:53N 29°33' W 090°25'1 2.8
2018-Jun-18 17:27N 29°33' W 090°26'2 5.5
2018-Jun-18 17:00N 29°34' W 090°29'3 5.7
2018-Jun-18 16:30N 29°34' W 090°32'3 5.2
2018-Jun-18 16:00N 29°35' W 090°35'2 3.9
2018-Jun-18 15:30N 29°35' W 090°37'3 5.2
2018-Jun-18 15:00N 29°36' W 090°40'2 4.4
2018-Jun-18 14:30N 29°37' W 090°42'0 0.8
2018-Jun-18 14:00N 29°37' W 090°42'0 0.1
2018-Jun-18 13:29N 29°37' W 090°42'0 0.1
2018-Jun-18 13:00N 29°37' W 090°43'0 0.0
2018-Jun-18 12:30N 29°37' W 090°43'0 0.0
2018-Jun-18 12:00N 29°37' W 090°43'0 0.5
2018-Jun-18 11:30N 29°36' W 090°43'2 4.2
2018-Jun-18 11:00N 29°34' W 090°43'2 4.3
2018-Jun-18 10:30N 29°33' W 090°45'1 1.4
2018-Jun-18 10:00N 29°33' W 090°46'0 0.0
2018-Jun-18 09:30N 29°33' W 090°46'0 0.0
2018-Jun-18 09:00N 29°33' W 090°46'0 0.0
2018-Jun-18 08:30N 29°33' W 090°46'0 0.0
2018-Jun-18 08:00N 29°33' W 090°46'0 0.0
2018-Jun-18 07:30N 29°33' W 090°46'0 0.1
2018-Jun-18 07:00N 29°32' W 090°46'2 4.0
2018-Jun-18 06:30N 29°32' W 090°48'63 3.7
2018-Jun-17 13:33N 29°50' W 091°58'0 4.9
2018-Jun-17 13:30N 29°50' W 091°58'2 4.7
2018-Jun-17 13:00N 29°50' W 092°01'3 5.4
2018-Jun-17 12:30N 29°49' W 092°03'3 5.7
2018-Jun-17 12:00N 29°48' W 092°07'3 5.8
2018-Jun-17 11:30N 29°47' W 092°10'2 3.7
2018-Jun-17 11:00N 29°47' W 092°12'1 1.5
2018-Jun-17 10:30N 29°47' W 092°13'1 2.3
2018-Jun-17 10:00N 29°48' W 092°14'0 0.8
2018-Jun-17 09:30N 29°48' W 092°14'0 0.1
2018-Jun-17 09:00N 29°48' W 092°14'0 0.1
2018-Jun-17 08:30N 29°48' W 092°14'0 0.0
2018-Jun-17 08:00N 29°48' W 092°14'0 0.2
2018-Jun-17 07:31N 29°48' W 092°14'1 2.8
2018-Jun-17 07:00N 29°48' W 092°16'2 4.6
2018-Jun-17 06:30N 29°50' W 092°18'2 3.7
2018-Jun-17 06:00N 29°50' W 092°20'2 3.3
2018-Jun-17 05:30N 29°51' W 092°22'37 4.5
2018-Jun-16 21:19N 29°56' W 093°04'1 3.8
2018-Jun-16 20:59N 29°56' W 093°05'0 0.1
2018-Jun-16 20:25N 29°56' W 093°05'0 0.0
2018-Jun-16 19:39N 29°56' W 093°05'0 0.0
2018-Jun-16 19:28N 29°56' W 093°05'0 0.0
2018-Jun-16 19:00N 29°56' W 093°05'0 0.0
2018-Jun-16 18:29N 29°56' W 093°05'1 1.1
2018-Jun-16 17:58N 29°56' W 093°06'1 2.8
2018-Jun-16 17:30N 29°56' W 093°08'1 2.7
2018-Jun-16 17:00N 29°56' W 093°09'1 2.8
2018-Jun-16 16:30N 29°57' W 093°10'2 3.8
2018-Jun-16 16:00N 29°58' W 093°12'2 3.3
2018-Jun-16 15:30N 29°60' W 093°13'2 3.8
2018-Jun-16 15:00N 30°01' W 093°14'2 3.5
2018-Jun-16 14:30N 30°02' W 093°16'2 3.8
2018-Jun-16 14:00N 30°04' W 093°16'2 3.3
2018-Jun-16 13:30N 30°05' W 093°18'1 2.6
2018-Jun-16 13:00N 30°06' W 093°19'0 0.2
2018-Jun-16 12:30N 30°06' W 093°19'0 0.1
2018-Jun-16 12:00N 30°06' W 093°19'0 0.1
2018-Jun-16 11:30N 30°06' W 093°19'0 0.0
2018-Jun-16 11:00N 30°06' W 093°19'0 0.0
2018-Jun-16 10:30N 30°06' W 093°19'0 0.1
2018-Jun-16 10:00N 30°06' W 093°19'0 0.0
2018-Jun-16 09:30N 30°06' W 093°19'0 0.0
2018-Jun-16 09:00N 30°06' W 093°19'0 0.0
2018-Jun-16 08:30N 30°06' W 093°19'0 0.1
2018-Jun-16 08:00N 30°06' W 093°19'0 0.1
2018-Jun-16 07:30N 30°06' W 093°19'0 0.1
2018-Jun-16 07:00N 30°06' W 093°19'0 0.1
2018-Jun-16 06:30N 30°06' W 093°19'0 0.0
2018-Jun-16 05:59N 30°06' W 093°19'0 0.0
2018-Jun-16 05:30N 30°06' W 093°19'0 0.0
2018-Jun-16 05:00N 30°06' W 093°19'0 0.1
2018-Jun-16 04:30N 30°06' W 093°19'0 0.0
2018-Jun-16 04:00N 30°06' W 093°19'0 0.0
2018-Jun-16 03:30N 30°06' W 093°19'0 0.1
2018-Jun-16 03:00N 30°06' W 093°19'0 0.0
2018-Jun-16 02:31N 30°06' W 093°19'0 0.0
2018-Jun-16 02:00N 30°06' W 093°19'0 0.0
2018-Jun-16 01:31N 30°06' W 093°19'0 0.0
2018-Jun-16 01:00N 30°06' W 093°19'0 0.0
2018-Jun-16 00:27N 30°06' W 093°19'0 0.0
2018-Jun-16 00:00N 30°06' W 093°19'0 0.1
2018-Jun-15 23:30N 30°06' W 093°19'0 0.0
2018-Jun-15 23:00N 30°06' W 093°19'0 0.0
2018-Jun-15 22:30N 30°06' W 093°19'0 0.0
2018-Jun-15 21:58N 30°06' W 093°19'0 0.1
2018-Jun-15 21:29N 30°06' W 093°19'0 0.0
2018-Jun-15 21:00N 30°06' W 093°19'0 0.0
2018-Jun-15 20:30N 30°06' W 093°19'0 0.0
2018-Jun-15 20:00N 30°06' W 093°19'0 0.0
2018-Jun-15 19:30N 30°06' W 093°19'0 0.0
2018-Jun-15 18:59N 30°06' W 093°19'0 0.0
2018-Jun-15 18:30N 30°06' W 093°19'0 0.0
2018-Jun-15 18:00N 30°06' W 093°19'0 0.0
2018-Jun-15 17:30N 30°06' W 093°19'0 0.0
2018-Jun-15 17:00N 30°06' W 093°19'0 0.0
2018-Jun-15 16:30N 30°06' W 093°19'0 0.0
2018-Jun-15 16:00N 30°06' W 093°19'0 0.0
2018-Jun-15 15:27N 30°06' W 093°19'0 0.0
2018-Jun-15 15:00N 30°06' W 093°19'0 0.0
2018-Jun-15 14:30N 30°06' W 093°19'0 0.0
2018-Jun-15 14:00N 30°06' W 093°19'1 1.2
2018-Jun-15 13:31N 30°06' W 093°20'3 5.6
2018-Jun-15 13:00N 30°09' W 093°20'3 5.3
2018-Jun-15 12:30N 30°11' W 093°19'3 6.3
2018-Jun-15 12:00N 30°13' W 093°16'0 0.9
2018-Jun-15 11:28N 30°13' W 093°16'0 0.2
2018-Jun-15 10:59N 30°13' W 093°16'1 1.5
2018-Jun-15 10:29N 30°14' W 093°16'0 0.6
2018-Jun-15 09:59N 30°14' W 093°15'0 0.0
2018-Jun-15 09:29N 30°14' W 093°15'0 0.0
2018-Jun-15 08:59N 30°14' W 093°15'0 0.0
2018-Jun-15 08:29N 30°14' W 093°15'0 0.0
2018-Jun-15 07:59N 30°14' W 093°15'0 0.0
2018-Jun-15 07:29N 30°14' W 093°15'0 0.0
2018-Jun-15 06:59N 30°14' W 093°15'0 0.0
2018-Jun-15 06:23N 30°14' W 093°15'0 0.0
2018-Jun-15 05:59N 30°14' W 093°15'0 0.0
2018-Jun-15 05:29N 30°14' W 093°15'0 0.0
2018-Jun-15 04:59N 30°14' W 093°15'0 0.0
2018-Jun-15 04:29N 30°14' W 093°15'0 0.0
2018-Jun-15 03:56N 30°14' W 093°15'0 0.0
2018-Jun-15 03:29N 30°14' W 093°15'0 0.0
2018-Jun-15 02:59N 30°14' W 093°15'0 0.0
2018-Jun-15 02:29N 30°14' W 093°15'0 0.0
2018-Jun-15 01:59N 30°14' W 093°15'0 0.0
2018-Jun-15 01:29N 30°14' W 093°15'0 0.0
2018-Jun-15 00:56N 30°14' W 093°15'0 0.0
2018-Jun-15 00:30N 30°14' W 093°15'0 0.0
2018-Jun-15 00:00N 30°14' W 093°15'0 0.0
2018-Jun-14 23:30N 30°14' W 093°15'0 0.0
2018-Jun-14 23:00N 30°14' W 093°15'0 0.0
2018-Jun-14 22:30N 30°14' W 093°15'0 0.0
2018-Jun-14 22:00N 30°14' W 093°15'0 0.0
2018-Jun-14 21:30N 30°14' W 093°15'0 0.0
2018-Jun-14 21:00N 30°14' W 093°15'0 0.0
2018-Jun-14 20:30N 30°14' W 093°15'0 0.0
2018-Jun-14 20:00N 30°14' W 093°15'0 0.0
2018-Jun-14 19:30N 30°14' W 093°15'0 0.0
2018-Jun-14 19:00N 30°14' W 093°15'0 0.0
2018-Jun-14 18:30N 30°14' W 093°15'0 0.0
2018-Jun-14 18:00N 30°14' W 093°15'0 0.0
2018-Jun-14 17:30N 30°14' W 093°15'0 0.0
2018-Jun-14 17:00N 30°14' W 093°15'0 0.0
2018-Jun-14 16:30N 30°14' W 093°15'0 0.0
2018-Jun-14 16:00N 30°14' W 093°15'0 0.0
2018-Jun-14 15:30N 30°14' W 093°15'0 0.0
2018-Jun-14 15:00N 30°14' W 093°15'0 0.0
2018-Jun-14 14:30N 30°14' W 093°15'0 0.0
2018-Jun-14 14:00N 30°14' W 093°15'0 0.0
2018-Jun-14 13:30N 30°14' W 093°15'0 0.0
2018-Jun-14 13:00N 30°14' W 093°15'0 0.0
2018-Jun-14 12:30N 30°14' W 093°15'0 0.0
2018-Jun-14 12:00N 30°14' W 093°15'0 0.6
2018-Jun-14 11:31N 30°14' W 093°16'0 0.9
2018-Jun-14 11:00N 30°13' W 093°16'0 0.1
2018-Jun-14 10:30N 30°13' W 093°16'0 0.1
2018-Jun-14 10:00N 30°13' W 093°16'0 0.0
2018-Jun-14 09:30N 30°13' W 093°16'0 0.0
2018-Jun-14 09:00N 30°13' W 093°16'0 0.0
2018-Jun-14 08:30N 30°13' W 093°16'0 0.0
2018-Jun-14 08:00N 30°13' W 093°16'0 0.0
2018-Jun-14 07:30N 30°13' W 093°16'0 0.0
2018-Jun-14 07:00N 30°13' W 093°16'0 0.0
2018-Jun-14 06:30N 30°13' W 093°16'0 0.0
2018-Jun-14 06:00N 30°13' W 093°16'0 0.0
2018-Jun-14 05:30N 30°13' W 093°16'0 0.0
2018-Jun-14 05:00N 30°13' W 093°16'0 0.0
2018-Jun-14 04:30N 30°13' W 093°16'0 0.0
2018-Jun-14 04:00N 30°13' W 093°16'0 0.0
2018-Jun-14 03:30N 30°13' W 093°16'0 0.0
2018-Jun-14 03:00N 30°13' W 093°16'0 0.0
2018-Jun-14 02:30N 30°13' W 093°16'0 0.0
2018-Jun-14 02:00N 30°13' W 093°16'0 0.0
2018-Jun-14 01:30N 30°13' W 093°16'0 0.0
2018-Jun-14 01:00N 30°13' W 093°16'0 0.0
2018-Jun-14 00:30N 30°13' W 093°16'0 0.0
2018-Jun-14 00:01N 30°13' W 093°16'0 0.0
2018-Jun-13 23:31N 30°13' W 093°16'0 0.0
2018-Jun-13 23:00N 30°13' W 093°16'0 0.0
2018-Jun-13 22:30N 30°13' W 093°16'0 0.0
2018-Jun-13 22:00N 30°13' W 093°16'0 0.0
2018-Jun-13 21:30N 30°13' W 093°16'0 0.0
2018-Jun-13 21:00N 30°13' W 093°16'0 0.0
2018-Jun-13 20:30N 30°13' W 093°16'0 0.0
2018-Jun-13 20:00N 30°13' W 093°16'0 0.0
2018-Jun-13 19:30N 30°13' W 093°16'0 0.0
2018-Jun-13 19:00N 30°13' W 093°16'0 0.0
2018-Jun-13 18:30N 30°13' W 093°16'0 0.0
2018-Jun-13 18:00N 30°13' W 093°16'0 0.0
2018-Jun-13 17:31N 30°13' W 093°16'0 0.0
2018-Jun-13 17:00N 30°13' W 093°16'0 0.1
2018-Jun-13 16:30N 30°13' W 093°16'0 0.3
2018-Jun-13 16:01N 30°13' W 093°16'0 0.0
2018-Jun-13 15:31N 30°13' W 093°16'0 0.0
2018-Jun-13 15:00N 30°13' W 093°16'0 0.0
2018-Jun-13 14:30N 30°13' W 093°16'0 0.0
2018-Jun-13 14:00N 30°13' W 093°16'0 0.0
2018-Jun-13 13:30N 30°13' W 093°16'0 0.0
2018-Jun-13 13:00N 30°13' W 093°16'0 0.0
2018-Jun-13 12:30N 30°13' W 093°16'0 0.0
2018-Jun-13 12:00N 30°13' W 093°16'0 0.0
2018-Jun-13 11:30N 30°13' W 093°16'0 0.0
2018-Jun-13 11:00N 30°13' W 093°16'0 0.0
2018-Jun-13 10:30N 30°13' W 093°16'0 0.0
2018-Jun-13 10:00N 30°13' W 093°16'0 0.0
2018-Jun-13 09:28N 30°13' W 093°16'0 0.0
2018-Jun-13 09:00N 30°13' W 093°16'0 0.0
2018-Jun-13 08:30N 30°13' W 093°16'1 1.1
2018-Jun-13 08:00N 30°13' W 093°16'3 6.1
2018-Jun-13 07:31N 30°11' W 093°18'3 5.7
2018-Jun-13 07:00N 30°09' W 093°20'3 6.0
2018-Jun-13 06:31N 30°06' W 093°19'2 3.2
2018-Jun-13 06:00N 30°05' W 093°18'1 1.9
2018-Jun-13 05:30N 30°05' W 093°17'0 0.3
2018-Jun-13 05:00N 30°05' W 093°17'1 1.5
2018-Jun-13 04:30N 30°04' W 093°16'0 0.6
2018-Jun-13 04:01N 30°04' W 093°16'1 1.4
2018-Jun-13 03:30N 30°03' W 093°16'1 1.2
2018-Jun-13 03:00N 30°03' W 093°16'0 0.1
2018-Jun-13 02:30N 30°03' W 093°16'0 0.0
2018-Jun-13 02:00N 30°03' W 093°16'0 0.0
2018-Jun-13 01:30N 30°03' W 093°16'0 0.0
2018-Jun-13 01:00N 30°03' W 093°16'0 0.0
2018-Jun-13 00:30N 30°03' W 093°16'0 0.0
2018-Jun-13 00:00N 30°03' W 093°16'0 0.0
2018-Jun-12 23:30N 30°03' W 093°16'0 0.0
2018-Jun-12 23:00N 30°03' W 093°16'0 0.0
2018-Jun-12 22:30N 30°03' W 093°16'0 0.0
2018-Jun-12 22:00N 30°03' W 093°16'0 0.0
2018-Jun-12 21:30N 30°03' W 093°16'0 0.0
2018-Jun-12 21:00N 30°03' W 093°16'0 0.0
2018-Jun-12 20:30N 30°03' W 093°16'0 0.0
2018-Jun-12 20:00N 30°03' W 093°16'0 0.0
2018-Jun-12 19:30N 30°03' W 093°16'0 0.0
2018-Jun-12 19:00N 30°03' W 093°16'0 0.0
2018-Jun-12 18:30N 30°03' W 093°16'0 0.0
2018-Jun-12 18:00N 30°03' W 093°16'0 0.0
2018-Jun-12 17:30N 30°03' W 093°16'0 0.0
2018-Jun-12 17:00N 30°03' W 093°16'0 0.1
2018-Jun-12 16:30N 30°03' W 093°16'0 0.0
2018-Jun-12 15:59N 30°03' W 093°16'0 0.0
2018-Jun-12 15:30N 30°03' W 093°16'0 0.0
2018-Jun-12 15:00N 30°03' W 093°16'3 5.0
2018-Jun-12 14:30N 30°01' W 093°14'3 6.5
2018-Jun-12 14:00N 29°58' W 093°11'41 6.0
2018-Jun-12 07:10N 29°53' W 092°24'2 5.6
2018-Jun-12 06:52N 29°52' W 092°23'2 5.3
2018-Jun-12 06:30N 29°51' W 092°21'3 5.4
2018-Jun-12 06:00N 29°50' W 092°18'3 5.5
2018-Jun-12 05:30N 29°48' W 092°16'3 6.0
2018-Jun-12 05:00N 29°47' W 092°13'1 1.3
2018-Jun-12 04:31N 29°47' W 092°12'1 3.0
2018-Jun-12 04:00N 29°47' W 092°10'3 6.9
2018-Jun-12 03:30N 29°48' W 092°06'3 6.9
2018-Jun-12 03:00N 29°49' W 092°03'3 6.8
2018-Jun-12 02:30N 29°50' W 091°59'  
Track history (hours):
 
Tides and Currents Weather Stations Pressure Air Temp Water Temp Dewpoint Dewpoint Depression Visibility Wind Speed Wind Dir Waves Ship Positions

Jackie Cenac

Owner: Cenac Marine Services, Houma, LA. More information available from US FCC via Universal Licensing System and Coast Guard Vessel Documentation Center.

Last reported at 2018-Jun-18 18:01 UTC. Time now 2018-Jun-25 17:41 UTC.
Position N 29°33' W 090°25'.

Length 22 m; draft 3.2 m.

Type: Tug. MMSI: 367584740.

Date/timePositionNaut miles runAvg speedWind from/ knotsBaromVisibWave heightAir tempDewpointWater temp
2018-Jun-18 18:01N 29°33' W 090°25'0 0.1
2018-Jun-18 17:53N 29°33' W 090°25'1 2.8
2018-Jun-18 17:27N 29°33' W 090°26'2 5.5
2018-Jun-18 17:00N 29°34' W 090°29'3 5.7
2018-Jun-18 16:30N 29°34' W 090°32'3 5.2
2018-Jun-18 16:00N 29°35' W 090°35'2 3.9
2018-Jun-18 15:30N 29°35' W 090°37'3 5.2
2018-Jun-18 15:00N 29°36' W 090°40'2 4.4
2018-Jun-18 14:30N 29°37' W 090°42'0 0.8
2018-Jun-18 14:00N 29°37' W 090°42'0 0.1
2018-Jun-18 13:29N 29°37' W 090°42'0 0.1
2018-Jun-18 13:00N 29°37' W 090°43'0 0.0
2018-Jun-18 12:30N 29°37' W 090°43'0 0.0
2018-Jun-18 12:00N 29°37' W 090°43'0 0.5
2018-Jun-18 11:30N 29°36' W 090°43'2 4.2
2018-Jun-18 11:00N 29°34' W 090°43'2 4.3
2018-Jun-18 10:30N 29°33' W 090°45'1 1.4
2018-Jun-18 10:00N 29°33' W 090°46'0 0.0
2018-Jun-18 09:30N 29°33' W 090°46'0 0.0
2018-Jun-18 09:00N 29°33' W 090°46'0 0.0
2018-Jun-18 08:30N 29°33' W 090°46'0 0.0
2018-Jun-18 08:00N 29°33' W 090°46'0 0.0
2018-Jun-18 07:30N 29°33' W 090°46'0 0.1
2018-Jun-18 07:00N 29°32' W 090°46'2 4.0
2018-Jun-18 06:30N 29°32' W 090°48'63 3.7
2018-Jun-17 13:33N 29°50' W 091°58'0 4.9
2018-Jun-17 13:30N 29°50' W 091°58'2 4.7
2018-Jun-17 13:00N 29°50' W 092°01'3 5.4
2018-Jun-17 12:30N 29°49' W 092°03'3 5.7
2018-Jun-17 12:00N 29°48' W 092°07'3 5.8
2018-Jun-17 11:30N 29°47' W 092°10'2 3.7
2018-Jun-17 11:00N 29°47' W 092°12'1 1.5
2018-Jun-17 10:30N 29°47' W 092°13'1 2.3
2018-Jun-17 10:00N 29°48' W 092°14'0 0.8
2018-Jun-17 09:30N 29°48' W 092°14'0 0.1
2018-Jun-17 09:00N 29°48' W 092°14'0 0.1
2018-Jun-17 08:30N 29°48' W 092°14'0 0.0
2018-Jun-17 08:00N 29°48' W 092°14'0 0.2
2018-Jun-17 07:31N 29°48' W 092°14'1 2.8
2018-Jun-17 07:00N 29°48' W 092°16'2 4.6
2018-Jun-17 06:30N 29°50' W 092°18'2 3.7
2018-Jun-17 06:00N 29°50' W 092°20'2 3.3
2018-Jun-17 05:30N 29°51' W 092°22'37 4.5
2018-Jun-16 21:19N 29°56' W 093°04'1 3.8
2018-Jun-16 20:59N 29°56' W 093°05'0 0.1
2018-Jun-16 20:25N 29°56' W 093°05'0 0.0
2018-Jun-16 19:39N 29°56' W 093°05'0 0.0
2018-Jun-16 19:28N 29°56' W 093°05'0 0.0
2018-Jun-16 19:00N 29°56' W 093°05'0 0.0
2018-Jun-16 18:29N 29°56' W 093°05'1 1.1
2018-Jun-16 17:58N 29°56' W 093°06'1 2.8
2018-Jun-16 17:30N 29°56' W 093°08'1 2.7
2018-Jun-16 17:00N 29°56' W 093°09'1 2.8
2018-Jun-16 16:30N 29°57' W 093°10'2 3.8
2018-Jun-16 16:00N 29°58' W 093°12'2 3.3
2018-Jun-16 15:30N 29°60' W 093°13'2 3.8
2018-Jun-16 15:00N 30°01' W 093°14'2 3.5
2018-Jun-16 14:30N 30°02' W 093°16'2 3.8
2018-Jun-16 14:00N 30°04' W 093°16'2 3.3
2018-Jun-16 13:30N 30°05' W 093°18'1 2.6
2018-Jun-16 13:00N 30°06' W 093°19'0 0.2
2018-Jun-16 12:30N 30°06' W 093°19'0 0.1
2018-Jun-16 12:00N 30°06' W 093°19'0 0.1
2018-Jun-16 11:30N 30°06' W 093°19'0 0.0
2018-Jun-16 11:00N 30°06' W 093°19'0 0.0
2018-Jun-16 10:30N 30°06' W 093°19'0 0.1
2018-Jun-16 10:00N 30°06' W 093°19'0 0.0
2018-Jun-16 09:30N 30°06' W 093°19'0 0.0
2018-Jun-16 09:00N 30°06' W 093°19'0 0.0
2018-Jun-16 08:30N 30°06' W 093°19'0 0.1
2018-Jun-16 08:00N 30°06' W 093°19'0 0.1
2018-Jun-16 07:30N 30°06' W 093°19'0 0.1
2018-Jun-16 07:00N 30°06' W 093°19'0 0.1
2018-Jun-16 06:30N 30°06' W 093°19'0 0.0
2018-Jun-16 05:59N 30°06' W 093°19'0 0.0
2018-Jun-16 05:30N 30°06' W 093°19'0 0.0
2018-Jun-16 05:00N 30°06' W 093°19'0 0.1
2018-Jun-16 04:30N 30°06' W 093°19'0 0.0
2018-Jun-16 04:00N 30°06' W 093°19'0 0.0
2018-Jun-16 03:30N 30°06' W 093°19'0 0.1
2018-Jun-16 03:00N 30°06' W 093°19'0 0.0
2018-Jun-16 02:31N 30°06' W 093°19'0 0.0
2018-Jun-16 02:00N 30°06' W 093°19'0 0.0
2018-Jun-16 01:31N 30°06' W 093°19'0 0.0
2018-Jun-16 01:00N 30°06' W 093°19'0 0.0
2018-Jun-16 00:27N 30°06' W 093°19'0 0.0
2018-Jun-16 00:00N 30°06' W 093°19'0 0.1
2018-Jun-15 23:30N 30°06' W 093°19'0 0.0
2018-Jun-15 23:00N 30°06' W 093°19'0 0.0
2018-Jun-15 22:30N 30°06' W 093°19'0 0.0
2018-Jun-15 21:58N 30°06' W 093°19'0 0.1
2018-Jun-15 21:29N 30°06' W 093°19'0 0.0
2018-Jun-15 21:00N 30°06' W 093°19'0 0.0
2018-Jun-15 20:30N 30°06' W 093°19'0 0.0
2018-Jun-15 20:00N 30°06' W 093°19'0 0.0
2018-Jun-15 19:30N 30°06' W 093°19'0 0.0
2018-Jun-15 18:59N 30°06' W 093°19'0 0.0
2018-Jun-15 18:30N 30°06' W 093°19'0 0.0
2018-Jun-15 18:00N 30°06' W 093°19'0 0.0
2018-Jun-15 17:30N 30°06' W 093°19'0 0.0
2018-Jun-15 17:00N 30°06' W 093°19'0 0.0
2018-Jun-15 16:30N 30°06' W 093°19'0 0.0
2018-Jun-15 16:00N 30°06' W 093°19'0 0.0
2018-Jun-15 15:27N 30°06' W 093°19'0 0.0
2018-Jun-15 15:00N 30°06' W 093°19'0 0.0
2018-Jun-15 14:30N 30°06' W 093°19'0 0.0
2018-Jun-15 14:00N 30°06' W 093°19'1 1.2
2018-Jun-15 13:31N 30°06' W 093°20'3 5.6
2018-Jun-15 13:00N 30°09' W 093°20'3 5.3
2018-Jun-15 12:30N 30°11' W 093°19'3 6.3
2018-Jun-15 12:00N 30°13' W 093°16'0 0.9
2018-Jun-15 11:28N 30°13' W 093°16'0 0.2
2018-Jun-15 10:59N 30°13' W 093°16'1 1.5
2018-Jun-15 10:29N 30°14' W 093°16'0 0.6
2018-Jun-15 09:59N 30°14' W 093°15'0 0.0
2018-Jun-15 09:29N 30°14' W 093°15'0 0.0
2018-Jun-15 08:59N 30°14' W 093°15'0 0.0
2018-Jun-15 08:29N 30°14' W 093°15'0 0.0
2018-Jun-15 07:59N 30°14' W 093°15'0 0.0
2018-Jun-15 07:29N 30°14' W 093°15'0 0.0
2018-Jun-15 06:59N 30°14' W 093°15'0 0.0
2018-Jun-15 06:23N 30°14' W 093°15'0 0.0
2018-Jun-15 05:59N 30°14' W 093°15'0 0.0
2018-Jun-15 05:29N 30°14' W 093°15'0 0.0
2018-Jun-15 04:59N 30°14' W 093°15'0 0.0
2018-Jun-15 04:29N 30°14' W 093°15'0 0.0
2018-Jun-15 03:56N 30°14' W 093°15'0 0.0
2018-Jun-15 03:29N 30°14' W 093°15'0 0.0
2018-Jun-15 02:59N 30°14' W 093°15'0 0.0
2018-Jun-15 02:29N 30°14' W 093°15'0 0.0
2018-Jun-15 01:59N 30°14' W 093°15'0 0.0
2018-Jun-15 01:29N 30°14' W 093°15'0 0.0
2018-Jun-15 00:56N 30°14' W 093°15'0 0.0
2018-Jun-15 00:30N 30°14' W 093°15'0 0.0
2018-Jun-15 00:00N 30°14' W 093°15'0 0.0
2018-Jun-14 23:30N 30°14' W 093°15'0 0.0
2018-Jun-14 23:00N 30°14' W 093°15'0 0.0
2018-Jun-14 22:30N 30°14' W 093°15'0 0.0
2018-Jun-14 22:00N 30°14' W 093°15'0 0.0
2018-Jun-14 21:30N 30°14' W 093°15'0 0.0
2018-Jun-14 21:00N 30°14' W 093°15'0 0.0
2018-Jun-14 20:30N 30°14' W 093°15'0 0.0
2018-Jun-14 20:00N 30°14' W 093°15'0 0.0
2018-Jun-14 19:30N 30°14' W 093°15'0 0.0
2018-Jun-14 19:00N 30°14' W 093°15'0 0.0
2018-Jun-14 18:30N 30°14' W 093°15'0 0.0
2018-Jun-14 18:00N 30°14' W 093°15'0 0.0
2018-Jun-14 17:30N 30°14' W 093°15'0 0.0
2018-Jun-14 17:00N 30°14' W 093°15'0 0.0
2018-Jun-14 16:30N 30°14' W 093°15'0 0.0
2018-Jun-14 16:00N 30°14' W 093°15'0 0.0
2018-Jun-14 15:30N 30°14' W 093°15'0 0.0
2018-Jun-14 15:00N 30°14' W 093°15'0 0.0
2018-Jun-14 14:30N 30°14' W 093°15'0 0.0
2018-Jun-14 14:00N 30°14' W 093°15'0 0.0
2018-Jun-14 13:30N 30°14' W 093°15'0 0.0
2018-Jun-14 13:00N 30°14' W 093°15'0 0.0
2018-Jun-14 12:30N 30°14' W 093°15'0 0.0
2018-Jun-14 12:00N 30°14' W 093°15'0 0.6
2018-Jun-14 11:31N 30°14' W 093°16'0 0.9
2018-Jun-14 11:00N 30°13' W 093°16'0 0.1
2018-Jun-14 10:30N 30°13' W 093°16'0 0.1
2018-Jun-14 10:00N 30°13' W 093°16'0 0.0
2018-Jun-14 09:30N 30°13' W 093°16'0 0.0
2018-Jun-14 09:00N 30°13' W 093°16'0 0.0
2018-Jun-14 08:30N 30°13' W 093°16'0 0.0
2018-Jun-14 08:00N 30°13' W 093°16'0 0.0
2018-Jun-14 07:30N 30°13' W 093°16'0 0.0
2018-Jun-14 07:00N 30°13' W 093°16'0 0.0
2018-Jun-14 06:30N 30°13' W 093°16'0 0.0
2018-Jun-14 06:00N 30°13' W 093°16'0 0.0
2018-Jun-14 05:30N 30°13' W 093°16'0 0.0
2018-Jun-14 05:00N 30°13' W 093°16'0 0.0
2018-Jun-14 04:30N 30°13' W 093°16'0 0.0
2018-Jun-14 04:00N 30°13' W 093°16'0 0.0
2018-Jun-14 03:30N 30°13' W 093°16'0 0.0
2018-Jun-14 03:00N 30°13' W 093°16'0 0.0
2018-Jun-14 02:30N 30°13' W 093°16'0 0.0
2018-Jun-14 02:00N 30°13' W 093°16'0 0.0
2018-Jun-14 01:30N 30°13' W 093°16'0 0.0
2018-Jun-14 01:00N 30°13' W 093°16'0 0.0
2018-Jun-14 00:30N 30°13' W 093°16'0 0.0
2018-Jun-14 00:01N 30°13' W 093°16'0 0.0
2018-Jun-13 23:31N 30°13' W 093°16'0 0.0
2018-Jun-13 23:00N 30°13' W 093°16'0 0.0
2018-Jun-13 22:30N 30°13' W 093°16'0 0.0
2018-Jun-13 22:00N 30°13' W 093°16'0 0.0
2018-Jun-13 21:30N 30°13' W 093°16'0 0.0
2018-Jun-13 21:00N 30°13' W 093°16'0 0.0
2018-Jun-13 20:30N 30°13' W 093°16'0 0.0
2018-Jun-13 20:00N 30°13' W 093°16'0 0.0
2018-Jun-13 19:30N 30°13' W 093°16'0 0.0
2018-Jun-13 19:00N 30°13' W 093°16'0 0.0
2018-Jun-13 18:30N 30°13' W 093°16'0 0.0
2018-Jun-13 18:00N 30°13' W 093°16'0 0.0
2018-Jun-13 17:31N 30°13' W 093°16'0 0.0
2018-Jun-13 17:00N 30°13' W 093°16'0 0.1
2018-Jun-13 16:30N 30°13' W 093°16'0 0.3
2018-Jun-13 16:01N 30°13' W 093°16'0 0.0
2018-Jun-13 15:31N 30°13' W 093°16'0 0.0
2018-Jun-13 15:00N 30°13' W 093°16'0 0.0
2018-Jun-13 14:30N 30°13' W 093°16'0 0.0
2018-Jun-13 14:00N 30°13' W 093°16'0 0.0
2018-Jun-13 13:30N 30°13' W 093°16'0 0.0
2018-Jun-13 13:00N 30°13' W 093°16'0 0.0
2018-Jun-13 12:30N 30°13' W 093°16'0 0.0
2018-Jun-13 12:00N 30°13' W 093°16'0 0.0
2018-Jun-13 11:30N 30°13' W 093°16'0 0.0
2018-Jun-13 11:00N 30°13' W 093°16'0 0.0
2018-Jun-13 10:30N 30°13' W 093°16'0 0.0
2018-Jun-13 10:00N 30°13' W 093°16'0 0.0
2018-Jun-13 09:28N 30°13' W 093°16'0 0.0
2018-Jun-13 09:00N 30°13' W 093°16'0 0.0
2018-Jun-13 08:30N 30°13' W 093°16'1 1.1
2018-Jun-13 08:00N 30°13' W 093°16'3 6.1
2018-Jun-13 07:31N 30°11' W 093°18'3 5.7
2018-Jun-13 07:00N 30°09' W 093°20'3 6.0
2018-Jun-13 06:31N 30°06' W 093°19'2 3.2
2018-Jun-13 06:00N 30°05' W 093°18'1 1.9
2018-Jun-13 05:30N 30°05' W 093°17'0 0.3
2018-Jun-13 05:00N 30°05' W 093°17'1 1.5
2018-Jun-13 04:30N 30°04' W 093°16'0 0.6
2018-Jun-13 04:01N 30°04' W 093°16'1 1.4
2018-Jun-13 03:30N 30°03' W 093°16'1 1.2
2018-Jun-13 03:00N 30°03' W 093°16'0 0.1
2018-Jun-13 02:30N 30°03' W 093°16'0 0.0
2018-Jun-13 02:00N 30°03' W 093°16'0 0.0
2018-Jun-13 01:30N 30°03' W 093°16'0 0.0
2018-Jun-13 01:00N 30°03' W 093°16'0 0.0
2018-Jun-13 00:30N 30°03' W 093°16'0 0.0
2018-Jun-13 00:00N 30°03' W 093°16'0 0.0
2018-Jun-12 23:30N 30°03' W 093°16'0 0.0
2018-Jun-12 23:00N 30°03' W 093°16'0 0.0
2018-Jun-12 22:30N 30°03' W 093°16'0 0.0
2018-Jun-12 22:00N 30°03' W 093°16'0 0.0
2018-Jun-12 21:30N 30°03' W 093°16'0 0.0
2018-Jun-12 21:00N 30°03' W 093°16'0 0.0
2018-Jun-12 20:30N 30°03' W 093°16'0 0.0
2018-Jun-12 20:00N 30°03' W 093°16'0 0.0
2018-Jun-12 19:30N 30°03' W 093°16'0 0.0
2018-Jun-12 19:00N 30°03' W 093°16'0 0.0
2018-Jun-12 18:30N 30°03' W 093°16'0 0.0
2018-Jun-12 18:00N 30°03' W 093°16'0 0.0
2018-Jun-12 17:30N 30°03' W 093°16'0 0.0
2018-Jun-12 17:00N 30°03' W 093°16'0 0.1
2018-Jun-12 16:30N 30°03' W 093°16'0 0.0
2018-Jun-12 15:59N 30°03' W 093°16'0 0.0
2018-Jun-12 15:30N 30°03' W 093°16'0 0.0
2018-Jun-12 15:00N 30°03' W 093°16'3 5.0
2018-Jun-12 14:30N 30°01' W 093°14'3 6.5
2018-Jun-12 14:00N 29°58' W 093°11'41 6.0
2018-Jun-12 07:10N 29°53' W 092°24'2 5.6
2018-Jun-12 06:52N 29°52' W 092°23'2 5.3
2018-Jun-12 06:30N 29°51' W 092°21'3 5.4
2018-Jun-12 06:00N 29°50' W 092°18'3 5.5
2018-Jun-12 05:30N 29°48' W 092°16'3 6.0
2018-Jun-12 05:00N 29°47' W 092°13'1 1.3
2018-Jun-12 04:31N 29°47' W 092°12'1 3.0
2018-Jun-12 04:00N 29°47' W 092°10'3 6.9
2018-Jun-12 03:30N 29°48' W 092°06'3 6.9
2018-Jun-12 03:00N 29°49' W 092°03'3 6.8
2018-Jun-12 02:30N 29°50' W 091°59'  

Dump ship's entire track history